createdAt,value
2022-12-03T00:00:41.635Z,2.61
2022-12-03T00:03:08.743Z,2.59
2022-12-03T00:05:35.821Z,2.53
2022-12-03T00:08:02.983Z,2.61
2022-12-03T00:10:30.091Z,2.64
2022-12-03T00:12:57.220Z,2.66
2022-12-03T00:15:25.142Z,2.62
2022-12-03T00:17:52.130Z,2.62
2022-12-03T00:20:22.257Z,2.61
2022-12-03T00:22:50.041Z,2.64
2022-12-03T00:25:17.281Z,2.69
2022-12-03T00:27:44.632Z,2.71
2022-12-03T00:30:12.791Z,2.74
2022-12-03T00:32:39.786Z,2.72
2022-12-03T00:35:07.396Z,2.71
2022-12-03T00:37:35.589Z,2.74
2022-12-03T00:40:04.867Z,2.75
2022-12-03T00:42:31.979Z,2.78
2022-12-03T00:44:58.979Z,2.81
2022-12-03T00:47:26.135Z,2.80
2022-12-03T00:49:53.328Z,2.82
2022-12-03T00:52:20.411Z,2.71
2022-12-03T00:54:47.449Z,2.65
2022-12-03T00:57:14.631Z,2.57
2022-12-03T00:59:41.821Z,2.54
2022-12-03T01:02:08.963Z,2.57
2022-12-03T01:04:36.112Z,2.63
2022-12-03T01:07:05.130Z,2.66
2022-12-03T01:09:32.845Z,2.68
2022-12-03T01:12:00.012Z,2.68
2022-12-03T01:14:27.190Z,2.73
2022-12-03T01:16:54.298Z,2.80
2022-12-03T01:19:21.352Z,2.75
2022-12-03T01:21:50.384Z,2.71
2022-12-03T01:24:18.962Z,2.72
2022-12-03T01:26:45.969Z,2.76
2022-12-03T01:29:13.770Z,2.69
2022-12-03T01:31:59.340Z,2.74
2022-12-03T01:34:26.506Z,2.73
2022-12-03T01:36:53.651Z,2.70
2022-12-03T01:39:21.187Z,2.74
2022-12-03T01:41:50.468Z,2.75
2022-12-03T01:44:29.745Z,2.72
2022-12-03T01:46:59.424Z,2.69
2022-12-03T01:49:38.253Z,2.66
2022-12-03T01:52:05.530Z,2.66
2022-12-03T01:54:39.506Z,2.65
2022-12-03T01:57:14.230Z,2.65
2022-12-03T01:59:41.367Z,2.62
2022-12-03T02:02:29.444Z,2.63
2022-12-03T02:04:57.880Z,2.59
2022-12-03T02:07:31.249Z,2.60
2022-12-03T02:10:00.362Z,2.66
2022-12-03T02:12:33.568Z,2.70
2022-12-03T02:15:01.367Z,2.69
2022-12-03T02:17:28.769Z,2.72
2022-12-03T02:19:57.167Z,2.76
2022-12-03T02:22:24.341Z,2.83
2022-12-03T02:25:11.331Z,2.83
2022-12-03T02:27:38.781Z,2.87
2022-12-03T02:30:07.222Z,2.88
2022-12-03T02:32:34.654Z,2.88
2022-12-03T02:35:01.713Z,2.85
2022-12-03T02:37:36.937Z,2.82
2022-12-03T02:40:11.274Z,2.85
2022-12-03T02:42:39.141Z,2.82
2022-12-03T02:45:20.251Z,2.74
2022-12-03T02:47:54.855Z,2.77
2022-12-03T02:50:27.396Z,2.77
2022-12-03T02:52:58.092Z,2.71
2022-12-03T02:55:27.957Z,2.54
2022-12-03T02:57:57.904Z,2.44
2022-12-03T03:00:25.388Z,2.38
2022-12-03T03:02:53.280Z,2.42
2022-12-03T03:05:23.872Z,2.41
2022-12-03T03:07:51.857Z,2.47
2022-12-03T03:10:21.215Z,2.49
2022-12-03T03:12:48.504Z,2.45
2022-12-03T03:15:15.871Z,2.46
2022-12-03T03:17:43.417Z,2.42
2022-12-03T03:20:11.425Z,2.46
2022-12-03T03:22:42.533Z,2.50
2022-12-03T03:25:13.837Z,2.52
2022-12-03T03:27:41.942Z,2.59
2022-12-03T03:30:10.101Z,2.60
2022-12-03T03:32:38.541Z,2.60
2022-12-03T03:35:07.033Z,2.60
2022-12-03T03:37:34.468Z,2.56
2022-12-03T03:40:02.231Z,2.62
2022-12-03T03:42:29.468Z,2.61
2022-12-03T03:44:56.704Z,2.61
2022-12-03T03:47:24.354Z,2.60
2022-12-03T03:49:51.763Z,2.62
2022-12-03T03:52:20.110Z,2.61
2022-12-03T03:54:47.671Z,2.65
2022-12-03T03:57:14.793Z,2.70
2022-12-03T03:59:41.971Z,2.66
2022-12-03T04:02:20.414Z,2.65
2022-12-03T04:04:48.919Z,2.65
2022-12-03T04:07:16.467Z,2.64
2022-12-03T04:09:44.072Z,2.67
2022-12-03T04:12:32.488Z,2.71
2022-12-03T04:15:00.162Z,2.71
2022-12-03T04:17:27.280Z,2.65
2022-12-03T04:19:54.475Z,2.64
2022-12-03T04:22:39.837Z,2.63
2022-12-03T04:25:27.093Z,2.65
2022-12-03T04:28:12.686Z,2.62
2022-12-03T04:30:40.231Z,2.65
2022-12-03T04:33:26.011Z,2.72
2022-12-03T04:35:53.448Z,2.73
2022-12-03T04:38:20.421Z,2.74
2022-12-03T04:41:04.397Z,2.75
2022-12-03T04:43:34.082Z,2.76
2022-12-03T04:46:02.684Z,2.80
2022-12-03T04:48:29.931Z,2.84
2022-12-03T04:50:57.028Z,2.85
2022-12-03T04:53:24.050Z,2.80
2022-12-03T04:55:51.056Z,2.79
2022-12-03T04:58:18.179Z,2.74
2022-12-03T05:00:45.302Z,2.76
2022-12-03T05:03:12.256Z,2.77
2022-12-03T05:05:39.373Z,2.77
2022-12-03T05:08:06.668Z,2.75
2022-12-03T05:10:33.604Z,2.79
2022-12-03T05:13:00.467Z,2.81
2022-12-03T05:15:27.565Z,2.79
2022-12-03T05:17:54.458Z,2.75
2022-12-03T05:20:40.152Z,2.76
2022-12-03T05:23:07.369Z,2.77
2022-12-03T05:25:34.414Z,2.71
2022-12-03T05:28:01.515Z,2.70
2022-12-03T05:30:28.757Z,2.69
2022-12-03T05:32:55.877Z,2.75
2022-12-03T05:35:22.923Z,2.76
2022-12-03T05:37:49.925Z,2.73
2022-12-03T05:40:17.174Z,2.75
2022-12-03T05:43:01.430Z,2.83
2022-12-03T05:45:34.054Z,2.78
2022-12-03T05:48:02.456Z,2.80
2022-12-03T05:50:31.949Z,2.79
2022-12-03T05:52:59.327Z,2.83
2022-12-03T05:55:27.459Z,2.82
2022-12-03T05:57:55.406Z,2.86
2022-12-03T06:00:25.141Z,2.89
2022-12-03T06:02:52.711Z,2.86
2022-12-03T06:05:21.215Z,2.92
2022-12-03T06:07:49.969Z,2.94
2022-12-03T06:10:20.054Z,2.97
2022-12-03T06:12:47.083Z,2.99
2022-12-03T06:15:14.976Z,3.04
2022-12-03T06:17:42.136Z,3.01
2022-12-03T06:20:13.775Z,2.98
2022-12-03T06:22:41.123Z,2.97
2022-12-03T06:25:08.971Z,3.00
2022-12-03T06:27:37.482Z,3.03
2022-12-03T06:30:06.496Z,3.09
2022-12-03T06:32:33.429Z,3.11
2022-12-03T06:35:00.620Z,2.99
2022-12-03T06:37:27.612Z,2.99
2022-12-03T06:39:54.611Z,2.93
2022-12-03T06:42:21.587Z,2.92
2022-12-03T06:44:48.602Z,2.95
2022-12-03T06:47:15.505Z,2.99
2022-12-03T06:49:45.064Z,3.04
2022-12-03T06:52:12.189Z,3.14
2022-12-03T06:54:39.189Z,3.07
2022-12-03T06:57:06.020Z,3.03
2022-12-03T06:59:34.410Z,3.00
2022-12-03T07:02:01.598Z,3.02
2022-12-03T07:04:28.937Z,2.97
2022-12-03T07:06:55.919Z,3.07
2022-12-03T07:09:23.101Z,3.06
2022-12-03T07:11:50.008Z,3.10
2022-12-03T07:14:17.117Z,3.18
2022-12-03T07:16:44.200Z,3.31
2022-12-03T07:19:12.104Z,3.37
2022-12-03T07:21:39.515Z,3.27
2022-12-03T07:24:06.883Z,3.21
2022-12-03T07:26:33.958Z,3.23
2022-12-03T07:29:00.985Z,3.29
2022-12-03T07:31:28.016Z,3.34
2022-12-03T07:33:55.181Z,3.40
2022-12-03T07:36:22.116Z,3.45
2022-12-03T07:38:49.343Z,3.45
2022-12-03T07:41:16.265Z,3.44
2022-12-03T07:43:45.052Z,3.53
2022-12-03T07:46:12.262Z,3.46
2022-12-03T07:48:39.163Z,3.40
2022-12-03T07:51:06.529Z,3.38
2022-12-03T07:53:51.932Z,3.39
2022-12-03T07:56:19.302Z,3.41
2022-12-03T07:58:46.294Z,3.46
2022-12-03T08:01:13.323Z,3.49
2022-12-03T08:03:43.078Z,3.58
2022-12-03T08:06:10.337Z,3.68
2022-12-03T08:08:37.255Z,3.63
2022-12-03T08:11:04.879Z,3.67
2022-12-03T08:13:34.373Z,3.69
2022-12-03T08:16:11.151Z,3.72
2022-12-03T08:18:38.049Z,3.60
2022-12-03T08:21:07.139Z,3.51
2022-12-03T08:23:34.984Z,3.40
2022-12-03T08:26:02.369Z,3.36
2022-12-03T08:28:29.309Z,3.34
2022-12-03T08:31:28.037Z,3.43
2022-12-03T08:34:19.551Z,3.45
2022-12-03T08:36:48.326Z,3.44
2022-12-03T08:39:41.833Z,3.47
2022-12-03T08:42:32.235Z,3.49
2022-12-03T08:45:35.484Z,3.51
2022-12-03T08:48:13.066Z,3.56
2022-12-03T08:50:41.800Z,3.54
2022-12-03T08:53:14.511Z,3.49
2022-12-03T08:55:53.123Z,3.47
2022-12-03T08:58:24.110Z,3.55
2022-12-03T09:01:35.101Z,3.50
2022-12-03T09:04:44.812Z,3.46
2022-12-03T09:07:11.869Z,3.46
2022-12-03T09:09:39.475Z,3.46
2022-12-03T09:12:06.627Z,3.42
2022-12-03T09:14:33.909Z,3.48
2022-12-03T09:17:00.901Z,3.63
2022-12-03T09:19:31.192Z,3.67
2022-12-03T09:21:58.412Z,3.74
2022-12-03T09:24:25.393Z,3.78
2022-12-03T09:26:52.593Z,3.90
2022-12-03T09:29:19.554Z,3.87
2022-12-03T09:31:46.731Z,3.88
2022-12-03T09:34:13.754Z,3.83
2022-12-03T09:36:41.080Z,3.87
2022-12-03T09:39:08.298Z,3.96
2022-12-03T09:41:35.582Z,3.92
2022-12-03T09:44:04.360Z,3.94
2022-12-03T09:46:34.177Z,3.97
2022-12-03T09:49:01.931Z,4.05
2022-12-03T09:51:33.746Z,4.03
2022-12-03T09:54:04.916Z,4.10
2022-12-03T09:56:47.417Z,3.95
2022-12-03T09:59:15.690Z,3.87
2022-12-03T10:01:42.947Z,3.93
2022-12-03T10:04:10.664Z,3.94
2022-12-03T10:06:43.956Z,3.88
2022-12-03T10:09:14.778Z,3.93
2022-12-03T10:11:42.209Z,3.91
2022-12-03T10:14:14.546Z,3.94
2022-12-03T10:16:42.528Z,4.05
2022-12-03T10:19:16.531Z,4.03
2022-12-03T10:21:43.455Z,3.99
2022-12-03T10:24:23.428Z,4.01
2022-12-03T10:26:52.605Z,4.11
2022-12-03T10:29:29.844Z,4.24
2022-12-03T10:32:01.598Z,4.22
2022-12-03T10:34:31.877Z,4.22
2022-12-03T10:37:17.524Z,4.14
2022-12-03T10:39:58.958Z,4.17
2022-12-03T10:42:28.824Z,4.17
2022-12-03T10:45:17.248Z,4.26
2022-12-03T10:48:02.921Z,4.18
2022-12-03T10:50:30.404Z,4.13
2022-12-03T10:52:57.357Z,4.09
2022-12-03T10:55:25.123Z,4.04
2022-12-03T10:57:52.635Z,4.09
2022-12-03T11:00:20.532Z,4.11
2022-12-03T11:02:56.149Z,4.05
2022-12-03T11:05:27.580Z,4.08
2022-12-03T11:07:55.252Z,4.13
2022-12-03T11:10:22.634Z,4.17
2022-12-03T11:13:27.218Z,4.16
2022-12-03T11:15:54.713Z,4.16
2022-12-03T11:18:36.951Z,4.13
2022-12-03T11:21:05.999Z,4.14
2022-12-03T11:23:44.968Z,4.20
2022-12-03T11:26:18.572Z,4.13
2022-12-03T11:28:46.479Z,4.25
2022-12-03T11:31:39.670Z,4.20
2022-12-03T11:34:19.177Z,4.14
2022-12-03T11:37:11.426Z,4.19
2022-12-03T11:39:55.822Z,4.13
2022-12-03T11:42:25.953Z,4.16
2022-12-03T11:45:13.832Z,4.15
2022-12-03T11:48:01.744Z,4.18
2022-12-03T11:50:50.395Z,4.21
2022-12-03T11:53:27.697Z,4.25
2022-12-03T11:56:11.228Z,4.13
2022-12-03T11:58:40.284Z,4.09
2022-12-03T12:01:08.545Z,4.00
2022-12-03T12:03:47.521Z,4.00
2022-12-03T12:06:19.571Z,4.03
2022-12-03T12:08:52.751Z,4.05
2022-12-03T12:11:34.329Z,4.06
2022-12-03T12:14:05.583Z,3.99
2022-12-03T12:16:52.808Z,3.95
2022-12-03T12:19:30.161Z,4.00
2022-12-03T12:22:25.366Z,3.98
2022-12-03T12:24:53.434Z,3.85
2022-12-03T12:27:24.084Z,3.95
2022-12-03T12:29:54.813Z,3.91
2022-12-03T12:32:26.306Z,3.93
2022-12-03T12:34:58.409Z,3.98
2022-12-03T12:37:33.106Z,4.03
2022-12-03T12:40:02.095Z,4.09
2022-12-03T12:42:35.891Z,4.06
2022-12-03T12:45:19.172Z,4.14
2022-12-03T12:47:56.842Z,4.09
2022-12-03T12:50:25.069Z,4.05
2022-12-03T12:53:01.565Z,4.08
2022-12-03T12:55:28.530Z,4.09
2022-12-03T12:58:00.706Z,4.11
2022-12-03T13:00:27.608Z,4.12
2022-12-03T13:03:01.774Z,4.11
2022-12-03T13:05:43.445Z,4.11
2022-12-03T13:08:22.285Z,4.10
2022-12-03T13:10:49.898Z,4.13
2022-12-03T13:13:32.028Z,4.10
2022-12-03T13:16:00.276Z,4.11
2022-12-03T13:18:32.848Z,4.11
2022-12-03T13:21:00.227Z,4.09
2022-12-03T13:23:33.741Z,4.07
2022-12-03T13:26:21.440Z,4.07
2022-12-03T13:28:52.766Z,4.11
2022-12-03T13:31:40.587Z,4.14
2022-12-03T13:34:21.023Z,4.11
2022-12-03T13:36:55.505Z,4.14
2022-12-03T13:39:32.572Z,4.16
2022-12-03T13:42:27.408Z,4.11
2022-12-03T13:44:54.754Z,4.07
2022-12-03T13:47:23.058Z,4.06
2022-12-03T13:49:54.072Z,3.98
2022-12-03T13:52:24.905Z,4.02
2022-12-03T13:54:55.497Z,4.02
2022-12-03T13:57:22.985Z,4.02
2022-12-03T13:59:49.933Z,4.04
2022-12-03T14:02:17.333Z,4.08
2022-12-03T14:04:44.418Z,4.10
2022-12-03T14:07:11.586Z,4.06
2022-12-03T14:09:39.201Z,4.01
2022-12-03T14:12:25.070Z,4.01
2022-12-03T14:14:52.352Z,4.02
2022-12-03T14:17:19.658Z,3.96
2022-12-03T14:19:46.785Z,3.99
2022-12-03T14:22:13.964Z,3.97
2022-12-03T14:24:40.879Z,3.94
2022-12-03T14:27:07.865Z,3.96
2022-12-03T14:29:35.050Z,3.97
2022-12-03T14:32:02.502Z,3.97
2022-12-03T14:34:29.438Z,4.00
2022-12-03T14:36:56.907Z,4.01
2022-12-03T14:39:23.932Z,4.00
2022-12-03T14:42:09.565Z,3.93
2022-12-03T14:44:36.759Z,3.96
2022-12-03T14:47:04.158Z,3.96
2022-12-03T14:49:31.372Z,3.95
2022-12-03T14:51:58.323Z,3.99
2022-12-03T14:54:25.498Z,3.96
2022-12-03T14:56:52.753Z,3.99
2022-12-03T14:59:24.391Z,3.97
2022-12-03T15:01:54.640Z,3.93
2022-12-03T15:04:22.014Z,3.93
2022-12-03T15:06:48.912Z,3.92
2022-12-03T15:09:15.967Z,3.87
2022-12-03T15:11:46.173Z,3.88
2022-12-03T15:14:13.763Z,3.91
2022-12-03T15:16:41.685Z,3.90
2022-12-03T15:19:09.115Z,3.89
2022-12-03T15:21:36.163Z,3.86
2022-12-03T15:24:03.702Z,3.84
2022-12-03T15:26:30.829Z,3.89
2022-12-03T15:28:58.161Z,3.92
2022-12-03T15:31:25.190Z,3.83
2022-12-03T15:33:52.269Z,3.87
2022-12-03T15:36:19.549Z,3.88
2022-12-03T15:38:46.591Z,3.80
2022-12-03T15:41:29.742Z,3.82
2022-12-03T15:43:59.288Z,3.75
2022-12-03T15:46:28.166Z,3.73
2022-12-03T15:48:56.035Z,3.74
2022-12-03T15:51:23.946Z,3.77
2022-12-03T15:53:51.371Z,3.65
2022-12-03T15:56:18.525Z,3.61
2022-12-03T15:58:45.648Z,3.59
2022-12-03T16:01:13.990Z,3.58
2022-12-03T16:03:42.002Z,3.63
2022-12-03T16:06:09.445Z,3.65
2022-12-03T16:08:36.548Z,3.60
2022-12-03T16:11:03.728Z,3.65
2022-12-03T16:13:30.626Z,3.57
2022-12-03T16:15:57.731Z,3.66
2022-12-03T16:18:24.860Z,3.57
2022-12-03T16:20:52.732Z,3.52
2022-12-03T16:23:19.902Z,3.51
2022-12-03T16:25:47.053Z,3.49
2022-12-03T16:28:14.232Z,3.51
2022-12-03T16:30:42.544Z,3.50
2022-12-03T16:33:09.510Z,3.49
2022-12-03T16:35:36.565Z,3.43
2022-12-03T16:38:03.975Z,3.41
2022-12-03T16:40:31.206Z,3.43
2022-12-03T16:42:58.172Z,3.42
2022-12-03T16:45:51.739Z,3.50
2022-12-03T16:48:19.373Z,3.45
2022-12-03T16:50:46.750Z,3.45
2022-12-03T16:53:14.735Z,3.44
2022-12-03T16:55:41.653Z,3.41
2022-12-03T16:58:08.794Z,3.39
2022-12-03T17:00:35.819Z,3.35
2022-12-03T17:03:03.022Z,3.31
2022-12-03T17:05:30.284Z,3.31
2022-12-03T17:07:57.354Z,3.38
2022-12-03T17:10:24.455Z,3.38
2022-12-03T17:15:40.010Z,3.36
2022-12-03T17:18:08.524Z,3.34
2022-12-03T17:20:36.025Z,3.38
2022-12-03T17:23:03.080Z,3.39
2022-12-03T17:25:30.619Z,3.43
2022-12-03T17:27:57.493Z,3.38
2022-12-03T17:30:24.496Z,3.39
2022-12-03T17:32:51.771Z,3.26
2022-12-03T17:35:19.320Z,3.29
2022-12-03T17:37:46.660Z,3.31
2022-12-03T17:40:15.705Z,3.35
2022-12-03T17:42:42.735Z,3.38
2022-12-03T17:45:10.134Z,3.39
2022-12-03T17:47:37.143Z,3.44
2022-12-03T17:50:04.611Z,3.41
2022-12-03T17:52:31.658Z,3.37
2022-12-03T17:55:21.578Z,3.38
2022-12-03T17:57:45.922Z,3.49
2022-12-03T18:00:13.574Z,3.47
2022-12-03T18:02:40.591Z,3.44
2022-12-03T18:05:07.965Z,3.44
2022-12-03T18:07:35.137Z,3.43
2022-12-03T18:10:03.414Z,3.44
2022-12-03T18:12:30.442Z,3.48
2022-12-03T18:14:57.413Z,3.44
2022-12-03T18:17:24.687Z,3.47
2022-12-03T18:19:51.892Z,3.46
2022-12-03T18:22:19.885Z,3.51
2022-12-03T18:25:16.610Z,3.57
2022-12-03T18:27:43.630Z,3.55
2022-12-03T18:30:11.154Z,3.55
2022-12-03T18:32:38.487Z,3.56
2022-12-03T18:35:05.687Z,3.60
2022-12-03T18:37:33.330Z,3.55
2022-12-03T18:40:00.869Z,3.56
2022-12-03T18:42:28.101Z,3.60
2022-12-03T18:44:56.307Z,3.58
2022-12-03T18:47:28.977Z,3.69
2022-12-03T18:49:56.835Z,3.64
2022-12-03T18:52:25.289Z,3.62
2022-12-03T18:54:52.587Z,3.58
2022-12-03T18:57:19.759Z,3.60
2022-12-03T18:59:46.875Z,3.57
2022-12-03T19:02:38.671Z,3.63
2022-12-03T19:05:04.665Z,3.62
2022-12-03T19:07:31.805Z,3.66
2022-12-03T19:09:58.813Z,3.65
2022-12-03T19:12:26.138Z,3.64
2022-12-03T19:14:53.244Z,3.63
2022-12-03T19:17:21.581Z,3.65
2022-12-03T19:19:48.687Z,3.64
2022-12-03T19:22:15.891Z,3.61
2022-12-03T19:24:42.955Z,3.65
2022-12-03T19:27:10.245Z,3.65
2022-12-03T19:29:37.505Z,3.69
2022-12-03T19:32:05.173Z,3.70
2022-12-03T19:34:32.590Z,3.71
2022-12-03T19:36:59.640Z,3.74
2022-12-03T19:39:26.894Z,3.77
2022-12-03T19:41:54.093Z,3.73
2022-12-03T19:44:21.083Z,3.70
2022-12-03T19:46:50.389Z,3.74
2022-12-03T19:49:21.113Z,3.74
2022-12-03T19:51:48.233Z,3.73
2022-12-03T19:54:15.344Z,3.74
2022-12-03T19:56:43.171Z,3.74
2022-12-03T19:59:13.788Z,3.70
2022-12-03T20:01:43.474Z,3.63
2022-12-03T20:04:11.613Z,3.68
2022-12-03T20:06:39.360Z,3.66
2022-12-03T20:09:09.505Z,3.67
2022-12-03T20:11:36.784Z,3.67
2022-12-03T20:14:06.806Z,3.69
2022-12-03T20:16:35.216Z,3.68
2022-12-03T20:19:05.262Z,3.70
2022-12-03T20:21:34.993Z,3.74
2022-12-03T20:24:02.409Z,3.72
2022-12-03T20:26:29.523Z,3.70
2022-12-03T20:28:57.614Z,3.68
2022-12-03T20:31:28.225Z,3.65
2022-12-03T20:33:58.584Z,3.54
2022-12-03T20:36:28.170Z,3.60
2022-12-03T20:39:01.453Z,3.57
2022-12-03T20:44:20.833Z,3.54
2022-12-03T20:46:47.872Z,3.55
2022-12-03T20:49:15.200Z,3.56
2022-12-03T20:51:43.368Z,3.59
2022-12-03T20:54:10.708Z,3.61
2022-12-03T20:56:42.344Z,3.62
2022-12-03T20:59:12.810Z,3.57
2022-12-03T21:01:40.849Z,3.58
2022-12-03T21:04:08.096Z,3.57
2022-12-03T21:06:37.202Z,3.52
2022-12-03T21:09:07.632Z,3.55
2022-12-03T21:11:36.246Z,3.51
2022-12-03T21:14:04.425Z,3.52
2022-12-03T21:16:59.682Z,3.52
2022-12-03T21:19:21.160Z,3.50
2022-12-03T21:21:48.719Z,3.54
2022-12-03T21:24:15.872Z,3.59
2022-12-03T21:26:42.928Z,3.53
2022-12-03T21:29:10.243Z,3.48
2022-12-03T21:31:38.687Z,3.48
2022-12-03T21:34:05.931Z,3.46
2022-12-03T21:36:33.201Z,3.46
2022-12-03T21:39:00.494Z,3.49
2022-12-03T21:41:27.805Z,3.49
2022-12-03T21:43:55.878Z,3.46
2022-12-03T21:47:11.765Z,3.52
2022-12-03T21:49:10.349Z,3.48
2022-12-03T21:51:38.130Z,3.45
2022-12-03T21:54:05.477Z,3.44
2022-12-03T21:56:33.353Z,3.47
2022-12-03T21:59:00.516Z,3.47
2022-12-03T22:01:27.709Z,3.54
2022-12-03T22:03:54.920Z,3.54
2022-12-03T22:06:22.557Z,3.59
2022-12-03T22:08:50.375Z,3.60
2022-12-03T22:11:22.427Z,3.56
2022-12-03T22:13:50.504Z,3.52
2022-12-03T22:16:20.502Z,3.54
2022-12-03T22:18:48.108Z,3.55
2022-12-03T22:21:18.612Z,3.54
2022-12-03T22:23:46.661Z,3.54
2022-12-03T22:26:15.664Z,3.54
2022-12-03T22:28:48.028Z,3.52
2022-12-03T22:31:16.430Z,3.55
2022-12-03T22:33:46.240Z,3.57
2022-12-03T22:36:19.912Z,3.60
2022-12-03T22:38:49.073Z,3.59
2022-12-03T22:41:16.338Z,3.63
2022-12-03T22:43:43.787Z,3.62
2022-12-03T22:46:13.013Z,3.62
2022-12-03T22:48:42.372Z,3.61
2022-12-03T22:51:27.496Z,3.63
2022-12-03T22:53:56.570Z,3.61
2022-12-03T22:56:24.404Z,3.62
2022-12-03T22:58:52.098Z,3.60
2022-12-03T23:01:35.192Z,3.60
2022-12-03T23:04:03.005Z,3.62
2022-12-03T23:06:31.083Z,3.62
2022-12-03T23:08:59.664Z,3.61
2022-12-03T23:11:26.968Z,3.60
2022-12-03T23:13:54.572Z,3.57
2022-12-03T23:16:24.236Z,3.56
2022-12-03T23:18:51.325Z,3.56
2022-12-03T23:21:29.477Z,3.58
2022-12-03T23:23:58.435Z,3.56
2022-12-03T23:26:25.508Z,3.56
2022-12-03T23:28:52.958Z,3.50
2022-12-03T23:31:25.142Z,3.48
2022-12-03T23:33:53.205Z,3.45
2022-12-03T23:36:21.258Z,3.48
2022-12-03T23:38:48.241Z,3.41
2022-12-03T23:41:18.024Z,3.43
2022-12-03T23:43:45.279Z,3.42
2022-12-03T23:46:24.074Z,3.50
2022-12-03T23:48:52.585Z,3.47
2022-12-03T23:51:22.688Z,3.49
2022-12-03T23:53:50.106Z,3.47
2022-12-03T23:56:20.331Z,3.50
2022-12-03T23:58:47.823Z,3.54
